Pompeu, Brazil
Current Conditions -  °F | °C
As of 12:00 PM on Thursday 27 Nov 2014 (Local Time) from SBLS Reporting Station
Broken Clouds Broken Clouds  
Wind Chill: 77°   Ceiling: 1800
Heat Index: 79°   Visibility: 6mi
Dew Point: 66°   Wind: 7mph
Humidity: 69%   Direction: 340°NNW
Pressure: 30.03"   Gusts: NA
Location:  19.22°S, 45°W
Report Text: SBLS 271400Z 34006KT 9999 BKN018 FEW030TCU BKN070 25/19 Q1017
Loading
Personal Weather Stations






























Interactive Weather Map New forecast layout! Learn more

10-Day Weather Forecast

Advertisements
Track Severe Weather on mobile